Time;durP1;ratioP1;P1;durP2;ratioP2;P2;SDS_P1;SDS_P2;PMS_P1;PMS_P2;Temp;Humidity;BMP_temperature;BMP_pressure;BME280_temperature;BME280_humidity;BME280_pressure;Samples;Min_cycle;Max_cycle;Signal;HPM_P1;HPM_P2
2022/03/03 00:00:19;;;;;;;12.40;8.30;;;21.20;55.80;;;;;;4996426;28;20102;-70
2022/03/03 00:02:45;;;;;;;20.70;7.03;;;21.10;55.90;;;;;;5011498;28;20047;-70
2022/03/03 00:05:12;;;;;;;10.10;7.80;;;21.10;56.20;;;;;;5013452;28;20047;-70
2022/03/03 00:07:39;;;;;;;10.68;7.68;;;21.30;55.90;;;;;;4998362;28;20537;-70
2022/03/03 00:10:07;;;;;;;11.68;8.07;;;21.30;56.00;;;;;;4995616;28;20039;-70
2022/03/03 00:12:34;;;;;;;12.18;7.78;;;21.30;55.80;;;;;;4996471;28;20476;-70
2022/03/03 00:15:00;;;;;;;14.63;7.97;;;21.20;55.70;;;;;;4997112;28;20043;-70
2022/03/03 00:17:26;;;;;;;10.27;6.90;;;21.20;55.90;;;;;;5005823;28;20045;-71
2022/03/03 00:19:52;;;;;;;12.15;8.73;;;21.30;55.90;;;;;;5002453;28;20043;-70
2022/03/03 00:22:19;;;;;;;10.75;7.30;;;21.10;55.70;;;;;;5000388;28;20074;-70
2022/03/03 00:24:45;;;;;;;13.93;7.72;;;21.20;55.50;;;;;;5000101;28;20061;-70
2022/03/03 00:27:11;;;;;;;9.55;6.97;;;21.10;55.30;;;;;;5000169;28;20043;-70
2022/03/03 00:29:37;;;;;;;9.68;7.05;;;21.20;55.50;;;;;;4999817;28;20165;-70
2022/03/03 00:32:03;;;;;;;10.98;7.55;;;21.20;55.50;;;;;;4999564;28;20034;-70
2022/03/03 00:34:29;;;;;;;9.90;7.18;;;21.10;55.00;;;;;;4998883;28;20035;-70
2022/03/03 00:36:55;;;;;;;9.20;6.32;;;21.20;55.30;;;;;;4998301;28;20069;-70
2022/03/03 00:39:21;;;;;;;10.82;7.65;;;21.20;55.30;;;;;;5000152;28;20050;-70
2022/03/03 00:41:50;;;;;;;10.48;7.50;;;21.20;55.30;;;;;;5000255;28;20098;-70
2022/03/03 00:44:16;;;;;;;12.57;8.18;;;21.30;55.50;;;;;;5019004;28;20089;-70
2022/03/03 00:46:42;;;;;;;11.27;7.18;;;21.20;55.70;;;;;;5005802;28;20043;-70
2022/03/03 00:49:08;;;;;;;10.18;7.63;;;21.00;56.10;;;;;;5007280;28;20068;-70
2022/03/03 00:51:34;;;;;;;13.60;7.28;;;21.10;56.40;;;;;;5019504;28;20082;-70
2022/03/03 00:54:01;;;;;;;10.32;8.13;;;21.10;56.80;;;;;;5005104;28;20039;-70
2022/03/03 00:56:27;;;;;;;8.90;6.50;;;21.10;57.00;;;;;;4998723;28;20050;-70
2022/03/03 00:58:53;;;;;;;13.15;8.85;;;21.00;56.90;;;;;;4999694;28;20039;-70
2022/03/03 01:01:20;;;;;;;10.95;7.35;;;21.00;56.90;;;;;;4999097;28;20051;-70
2022/03/03 01:03:46;;;;;;;9.88;7.32;;;21.10;56.90;;;;;;4999174;28;20039;-70
2022/03/03 01:06:14;;;;;;;11.55;8.65;;;21.00;56.80;;;;;;4999534;28;20042;-70
2022/03/03 01:08:40;;;;;;;12.18;8.05;;;21.10;56.60;;;;;;5009151;28;20053;-70
2022/03/03 01:11:07;;;;;;;9.90;7.43;;;21.20;55.80;;;;;;4999551;28;20100;-70
2022/03/03 01:13:34;;;;;;;13.68;7.88;;;21.30;56.20;;;;;;4999752;28;20054;-70
2022/03/03 01:16:00;;;;;;;13.15;7.35;;;21.40;55.80;;;;;;4999109;28;20043;-70
2022/03/03 01:18:26;;;;;;;11.38;7.07;;;21.20;56.10;;;;;;5003459;28;20046;-70
2022/03/03 01:20:54;;;;;;;9.75;6.93;;;21.20;56.10;;;;;;5018835;28;20042;-70
2022/03/03 01:23:20;;;;;;;10.07;7.63;;;21.30;56.40;;;;;;5004806;28;20073;-70
2022/03/03 01:25:46;;;;;;;13.45;7.60;;;21.20;55.90;;;;;;5009993;28;20058;-70
2022/03/03 01:28:12;;;;;;;9.35;6.00;;;21.20;56.20;;;;;;4998543;28;20519;-70
2022/03/03 01:30:41;;;;;;;10.93;7.32;;;21.10;56.70;;;;;;4998649;28;20050;-70
2022/03/03 01:33:07;;;;;;;12.63;7.78;;;21.00;56.70;;;;;;4998860;28;20062;-70
2022/03/03 01:35:34;;;;;;;12.85;8.32;;;21.00;56.90;;;;;;4982348;28;20046;-70
2022/03/03 01:38:00;;;;;;;10.80;7.35;;;20.90;57.00;;;;;;4998542;28;20077;-69
2022/03/03 01:40:26;;;;;;;9.18;6.68;;;21.00;57.10;;;;;;4998396;28;20045;-70
2022/03/03 01:42:53;;;;;;;10.40;7.25;;;21.00;57.20;;;;;;4998150;28;20049;-70
2022/03/03 01:45:19;;;;;;;12.07;7.35;;;20.90;57.20;;;;;;5009587;28;20062;-70
2022/03/03 01:47:45;;;;;;;10.20;7.30;;;21.00;57.30;;;;;;4998886;28;20054;-70
2022/03/03 01:50:13;;;;;;;10.00;7.50;;;21.00;57.60;;;;;;4998168;28;20031;-70
2022/03/03 01:52:39;;;;;;;10.38;7.28;;;20.90;57.40;;;;;;4998639;28;20035;-70
2022/03/03 01:55:05;;;;;;;12.88;7.55;;;21.00;56.90;;;;;;4997808;28;20043;-70
2022/03/03 01:57:31;;;;;;;13.02;7.57;;;21.00;57.00;;;;;;4998653;28;20074;-69
2022/03/03 01:59:58;;;;;;;9.95;7.50;;;21.00;56.90;;;;;;4998347;28;20047;-70
2022/03/03 02:02:27;;;;;;;11.38;7.35;;;21.00;57.00;;;;;;4998245;28;20038;-70
2022/03/03 02:04:53;;;;;;;11.23;7.07;;;21.20;56.70;;;;;;4997469;28;20111;-70
2022/03/03 02:07:19;;;;;;;11.07;7.57;;;21.20;56.40;;;;;;4997996;28;20047;-70
2022/03/03 02:09:45;;;;;;;9.48;6.35;;;21.10;56.70;;;;;;5002598;28;20096;-70
2022/03/03 02:12:12;;;;;;;13.18;8.02;;;21.20;56.80;;;;;;4997686;28;20039;-70
2022/03/03 02:14:49;;;;;;;10.13;7.47;;;21.10;56.50;;;;;;4997694;28;20035;-70
2022/03/03 02:17:16;;;;;;;9.77;6.63;;;20.90;56.70;;;;;;4998102;28;20045;-70
2022/03/03 02:19:42;;;;;;;12.15;7.63;;;21.00;57.20;;;;;;4997208;28;20039;-70
2022/03/03 02:22:10;;;;;;;10.75;7.60;;;20.90;57.10;;;;;;4998181;28;20038;-70
2022/03/03 02:24:37;;;;;;;11.23;7.03;;;20.90;57.40;;;;;;4997575;28;20102;-70
2022/03/03 02:27:04;;;;;;;11.82;7.65;;;20.90;57.60;;;;;;4997531;28;20050;-70
2022/03/03 02:29:31;;;;;;;14.07;7.45;;;20.80;57.60;;;;;;4997392;28;20043;-70
2022/03/03 02:32:00;;;;;;;16.60;8.32;;;20.70;57.90;;;;;;4997638;28;20043;-70
2022/03/03 02:34:26;;;;;;;9.77;7.35;;;20.80;57.90;;;;;;4997587;28;20522;-70
2022/03/03 02:36:52;;;;;;;13.25;8.05;;;20.70;58.00;;;;;;4997903;28;20110;-70
2022/03/03 02:39:18;;;;;;;10.18;7.10;;;20.80;57.80;;;;;;4997074;28;20039;-70
2022/03/03 02:41:45;;;;;;;12.70;7.53;;;20.80;57.70;;;;;;4997148;28;20105;-70
2022/03/03 02:44:11;;;;;;;13.65;8.48;;;20.70;57.80;;;;;;4997920;28;20030;-70
2022/03/03 02:46:37;;;;;;;15.32;8.85;;;20.70;57.70;;;;;;4997244;28;20255;-70
2022/03/03 02:49:05;;;;;;;12.27;7.55;;;20.90;57.70;;;;;;4997397;28;20046;-70
2022/03/03 02:51:31;;;;;;;13.55;8.45;;;20.80;57.10;;;;;;4997505;28;20043;-69
2022/03/03 02:53:57;;;;;;;12.93;8.15;;;20.80;57.20;;;;;;4996468;28;20031;-70
2022/03/03 02:56:23;;;;;;;11.90;7.57;;;21.00;57.40;;;;;;4997352;28;20053;-70
2022/03/03 02:58:50;;;;;;;10.82;7.57;;;20.90;57.30;;;;;;4996956;28;20043;-70
2022/03/03 03:01:16;;;;;;;12.52;7.50;;;20.90;57.20;;;;;;4997223;28;20035;-70
2022/03/03 03:03:42;;;;;;;12.02;8.00;;;20.90;57.00;;;;;;4997424;28;20041;-70
2022/03/03 03:06:13;;;;;;;12.27;7.68;;;20.90;56.90;;;;;;4997220;28;20043;-70
2022/03/03 03:08:39;;;;;;;14.32;7.93;;;20.90;57.00;;;;;;4996436;28;20051;-70
2022/03/03 03:11:05;;;;;;;11.55;8.25;;;21.00;56.80;;;;;;4996353;28;20127;-70
2022/03/03 03:13:31;;;;;;;12.38;7.63;;;20.90;57.30;;;;;;4997226;28;20030;-70
2022/03/03 03:15:57;;;;;;;9.82;7.15;;;20.90;57.30;;;;;;4997052;28;20070;-70
2022/03/03 03:18:23;;;;;;;12.73;8.15;;;20.80;57.20;;;;;;4997143;28;20043;-70
2022/03/03 03:20:53;;;;;;;12.52;7.65;;;20.90;57.20;;;;;;4996264;28;20043;-71
2022/03/03 03:23:22;;;;;;;15.98;8.90;;;20.90;57.10;;;;;;4996762;28;20058;-70
2022/03/03 03:25:49;;;;;;;14.57;8.57;;;20.80;57.50;;;;;;4995753;28;20070;-70
2022/03/03 03:28:17;;;;;;;14.13;8.68;;;20.80;57.80;;;;;;4996875;28;20043;-70
2022/03/03 03:30:44;;;;;;;13.20;8.32;;;20.80;57.70;;;;;;4996264;28;20131;-70
2022/03/03 03:33:10;;;;;;;11.93;6.10;;;20.80;57.60;;;;;;4997343;28;20050;-70
2022/03/03 03:35:37;;;;;;;11.50;8.10;;;20.80;57.70;;;;;;4996591;28;20047;-70
2022/03/03 03:38:04;;;;;;;11.02;7.10;;;20.80;57.50;;;;;;4997054;28;20106;-70
2022/03/03 03:40:30;;;;;;;12.75;7.80;;;20.80;57.50;;;;;;4996229;28;20051;-70
2022/03/03 03:42:56;;;;;;;10.38;7.47;;;20.90;57.50;;;;;;4996259;28;20049;-70
2022/03/03 03:45:22;;;;;;;14.35;8.80;;;20.80;57.40;;;;;;4996622;28;20054;-70
2022/03/03 03:47:49;;;;;;;11.48;7.68;;;20.80;57.50;;;;;;4997248;28;20112;-70
2022/03/03 03:50:15;;;;;;;12.95;8.77;;;20.70;57.60;;;;;;4996271;28;20030;-70
2022/03/03 03:52:42;;;;;;;13.25;7.53;;;20.80;57.60;;;;;;5000207;28;20034;-70
2022/03/03 03:55:10;;;;;;;10.93;7.32;;;20.80;57.50;;;;;;5000526;28;20035;-70
2022/03/03 03:57:36;;;;;;;12.52;8.07;;;20.70;57.40;;;;;;5000734;28;20110;-70
2022/03/03 04:00:13;;;;;;;13.15;8.02;;;20.70;57.60;;;;;;5000627;28;20065;-70
2022/03/03 04:02:43;;;;;;;11.30;8.07;;;20.80;57.90;;;;;;5000741;28;20043;-70
2022/03/03 04:05:11;;;;;;;9.75;7.15;;;20.80;58.00;;;;;;5000414;28;20054;-70
2022/03/03 04:07:37;;;;;;;11.88;7.80;;;20.70;57.90;;;;;;5000756;28;20062;-70
2022/03/03 04:10:11;;;;;;;12.00;7.82;;;20.60;57.80;;;;;;5004688;28;20042;-70
2022/03/03 04:12:39;;;;;;;12.77;7.47;;;20.50;58.00;;;;;;5019290;28;20045;-69
2022/03/03 04:15:06;;;;;;;13.15;7.97;;;20.60;57.90;;;;;;5019426;28;20035;-70
2022/03/03 04:17:32;;;;;;;12.35;7.75;;;20.60;58.20;;;;;;5000686;28;20049;-70
2022/03/03 04:19:58;;;;;;;13.70;8.13;;;20.50;58.50;;;;;;4999854;28;20077;-70
2022/03/03 04:22:25;;;;;;;11.60;7.70;;;20.50;58.20;;;;;;5000492;28;20471;-70
2022/03/03 04:24:51;;;;;;;12.95;7.53;;;20.60;58.50;;;;;;4999963;28;20106;-70
2022/03/03 04:27:17;;;;;;;13.32;7.82;;;20.60;58.60;;;;;;4999956;28;20119;-70
2022/03/03 04:29:44;;;;;;;11.23;7.30;;;20.60;58.10;;;;;;5000306;28;20141;-70
2022/03/03 04:32:11;;;;;;;12.27;8.25;;;20.60;58.10;;;;;;4981913;28;20042;-70
2022/03/03 04:34:37;;;;;;;10.65;7.50;;;20.70;57.90;;;;;;4999372;28;20132;-70
2022/03/03 04:37:03;;;;;;;11.15;6.93;;;20.70;57.90;;;;;;4999840;28;20061;-70
2022/03/03 04:39:29;;;;;;;11.85;6.88;;;20.80;57.80;;;;;;5001026;28;20053;-70
2022/03/03 04:41:55;;;;;;;13.02;7.38;;;20.90;57.60;;;;;;4999758;28;20047;-70
2022/03/03 04:44:21;;;;;;;11.13;6.43;;;20.80;57.00;;;;;;4999932;28;20070;-70
2022/03/03 04:46:48;;;;;;;13.80;8.20;;;20.90;57.00;;;;;;4999510;28;20062;-70
2022/03/03 04:49:14;;;;;;;13.18;7.22;;;20.80;57.30;;;;;;4999846;28;20095;-70
2022/03/03 04:51:41;;;;;;;11.55;7.85;;;20.70;56.60;;;;;;4999039;28;20043;-70
2022/03/03 04:54:08;;;;;;;9.82;7.03;;;20.60;57.70;;;;;;5006329;28;20042;-70
2022/03/03 04:56:36;;;;;;;12.45;7.90;;;20.50;57.90;;;;;;5019480;28;20049;-70
2022/03/03 04:59:02;;;;;;;10.75;7.05;;;20.50;58.00;;;;;;5019483;28;20042;-69
2022/03/03 05:01:29;;;;;;;14.13;8.60;;;20.40;58.20;;;;;;5007454;28;20054;-70
2022/03/03 05:03:55;;;;;;;12.90;8.05;;;20.30;58.70;;;;;;5005664;28;20045;-70
2022/03/03 05:06:21;;;;;;;9.30;6.50;;;20.30;59.10;;;;;;5005925;28;20393;-70
2022/03/03 05:08:47;;;;;;;10.32;7.55;;;20.30;59.20;;;;;;4999889;28;20058;-70
2022/03/03 05:11:14;;;;;;;11.38;6.53;;;20.40;58.70;;;;;;4998979;28;20070;-70
2022/03/03 05:13:40;;;;;;;13.05;7.63;;;20.40;58.60;;;;;;4998779;28;20046;-70
2022/03/03 05:16:06;;;;;;;9.57;6.45;;;20.60;58.80;;;;;;4998313;28;20613;-70
2022/03/03 05:18:32;;;;;;;11.50;7.30;;;20.60;58.40;;;;;;4998317;28;20114;-70
2022/03/03 05:20:59;;;;;;;15.18;7.88;;;20.60;58.00;;;;;;5000206;28;20039;-70
2022/03/03 05:23:25;;;;;;;12.05;7.55;;;20.60;57.60;;;;;;5000011;28;20049;-70
2022/03/03 05:25:51;;;;;;;11.88;7.32;;;20.60;57.80;;;;;;5014402;28;20105;-70
2022/03/03 05:28:17;;;;;;;14.23;8.38;;;20.70;57.80;;;;;;5015961;28;20057;-70
2022/03/03 05:30:43;;;;;;;13.07;8.32;;;20.70;57.90;;;;;;4998988;28;20031;-70
2022/03/03 05:33:09;;;;;;;12.27;7.30;;;20.70;57.90;;;;;;4998740;28;20039;-70
2022/03/03 05:35:36;;;;;;;9.27;6.00;;;20.70;57.80;;;;;;4998439;28;20039;-70
2022/03/03 05:38:02;;;;;;;16.20;7.57;;;20.80;57.80;;;;;;4998045;28;20046;-70
2022/03/03 05:40:28;;;;;;;13.15;6.43;;;20.70;57.50;;;;;;5015346;28;20038;-70
2022/03/03 05:42:54;;;;;;;11.15;6.60;;;20.80;57.70;;;;;;5003229;28;20106;-70
2022/03/03 05:45:20;;;;;;;10.25;6.80;;;20.80;57.70;;;;;;4998411;28;20051;-70
2022/03/03 05:47:47;;;;;;;9.60;6.47;;;20.80;57.30;;;;;;4998411;28;20058;-70
2022/03/03 05:50:15;;;;;;;13.07;7.20;;;20.70;57.80;;;;;;4998164;28;20065;-70
2022/03/03 05:52:41;;;;;;;10.68;5.68;;;20.70;57.90;;;;;;4998241;28;20039;-70
2022/03/03 05:55:07;;;;;;;11.25;6.90;;;20.70;58.30;;;;;;5001971;28;20039;-70
2022/03/03 05:57:42;;;;;;;11.32;6.65;;;20.70;57.90;;;;;;4998151;28;20515;-70
2022/03/03 06:00:13;;;;;;;12.45;7.05;;;20.70;57.90;;;;;;5000339;28;20074;-70
2022/03/03 06:02:57;;;;;;;10.00;6.78;;;20.60;57.90;;;;;;4997855;28;20110;-70
2022/03/03 06:05:27;;;;;;;13.00;7.55;;;20.50;58.50;;;;;;4997953;28;20066;-70
2022/03/03 06:08:05;;;;;;;9.63;6.30;;;20.60;58.50;;;;;;4997868;28;20061;-70
2022/03/03 06:10:33;;;;;;;8.80;6.32;;;20.50;58.30;;;;;;5012494;28;20042;-70
2022/03/03 06:13:06;;;;;;;9.27;6.05;;;20.50;58.20;;;;;;5017264;28;20140;-70
2022/03/03 06:15:37;;;;;;;9.55;6.60;;;20.60;58.10;;;;;;5006657;28;20069;-70
2022/03/03 06:18:03;;;;;;;8.73;6.82;;;20.60;57.90;;;;;;4997475;28;20070;-70
2022/03/03 06:20:31;;;;;;;10.63;7.45;;;20.60;58.00;;;;;;4999741;28;20047;-70
2022/03/03 06:22:57;;;;;;;11.27;6.70;;;20.70;57.90;;;;;;4996945;28;20058;-71
2022/03/03 06:25:23;;;;;;;5.40;4.15;;;20.80;57.80;;;;;;4997749;28;20084;-70
2022/03/03 06:27:49;;;;;;;10.20;6.88;;;20.70;50.50;;;;;;4998276;28;20055;-70
2022/03/03 06:30:16;;;;;;;5.80;3.92;;;20.70;46.10;;;;;;4996718;28;20035;-70
2022/03/03 06:32:42;;;;;;;4.75;3.42;;;20.60;43.80;;;;;;4996824;28;20089;-70
2022/03/03 06:35:08;;;;;;;8.90;7.13;;;20.80;42.20;;;;;;4996635;28;20042;-70
2022/03/03 06:37:34;;;;;;;4.97;4.13;;;20.80;41.60;;;;;;4997091;28;20039;-70
2022/03/03 06:40:01;;;;;;;11.25;5.88;;;20.80;40.00;;;;;;4998728;28;20058;-70
2022/03/03 06:42:27;;;;;;;6.10;4.03;;;20.80;39.30;;;;;;4997968;28;20125;-71
2022/03/03 06:44:54;;;;;;;7.45;3.90;;;20.90;38.10;;;;;;4996390;28;20051;-69
2022/03/03 06:47:21;;;;;;;9.05;7.10;;;20.90;39.10;;;;;;4996881;28;20073;-68
2022/03/03 06:49:48;;;;;;;9.57;6.22;;;21.00;38.30;;;;;;4996718;28;20051;-69
2022/03/03 06:52:17;;;;;;;6.57;4.22;;;21.10;39.10;;;;;;4996495;28;20045;-69
2022/03/03 06:54:51;;;;;;;10.50;7.15;;;21.20;39.80;;;;;;4998388;28;20054;-69
2022/03/03 06:57:21;;;;;;;8.38;4.35;;;21.00;40.40;;;;;;4995880;28;20134;-69
2022/03/03 06:59:47;;;;;;;11.52;8.50;;;21.20;39.30;;;;;;4996281;28;20057;-70
2022/03/03 07:02:15;;;;;;;18.23;7.57;;;21.10;38.90;;;;;;4996436;28;20066;-71
2022/03/03 07:04:45;;;;;;;11.50;7.80;;;21.10;39.70;;;;;;5004982;28;20038;-70
2022/03/03 07:07:13;;;;;;;14.63;9.70;;;21.20;39.20;;;;;;5009038;28;20072;-71
2022/03/03 07:09:39;;;;;;;9.43;4.50;;;21.30;40.40;;;;;;4996929;28;20062;-70
2022/03/03 07:12:06;;;;;;;13.30;6.57;;;21.20;39.30;;;;;;4996721;28;20062;-69
2022/03/03 07:14:32;;;;;;;9.20;7.07;;;21.30;49.80;;;;;;4996124;28;20065;-70
2022/03/03 07:17:00;;;;;;;9.63;6.35;;;21.50;54.60;;;;;;4980049;28;20062;-71
2022/03/03 07:19:26;;;;;;;11.52;7.68;;;21.40;55.30;;;;;;4993111;28;20054;-70
2022/03/03 07:22:09;;;;;;;10.10;7.10;;;21.30;57.30;;;;;;4999052;28;20093;-72
2022/03/03 07:24:51;;;;;;;;;;;21.40;59.10;;;;;;4997441;28;20078;-72
2022/03/03 07:27:21;;;;;;;12.88;7.82;;;21.30;58.40;;;;;;4997167;28;19925;-72
2022/03/03 07:29:57;;;;;;;10.48;7.93;;;21.20;59.10;;;;;;4996101;28;20039;-74
2022/03/03 07:32:36;;;;;;;11.52;8.20;;;21.10;59.70;;;;;;4993301;28;20085;-72
2022/03/03 07:35:09;;;;;;;8.07;5.88;;;21.00;59.70;;;;;;4996580;28;20034;-73
2022/03/03 07:37:39;;;;;;;;;;;21.00;60.20;;;;;;4996967;28;20058;-72
2022/03/03 07:40:09;;;;;;;11.80;7.95;;;21.20;59.10;;;;;;4997493;28;20061;-72
2022/03/03 07:42:36;;;;;;;10.02;7.82;;;21.10;60.40;;;;;;5001338;28;20047;-72
2022/03/03 07:45:04;;;;;;;10.43;7.43;;;21.10;60.40;;;;;;4996197;28;20054;-75
2022/03/03 07:47:31;;;;;;;10.20;7.32;;;21.10;60.60;;;;;;4996014;28;20054;-73
2022/03/03 07:49:57;;;;;;;9.75;7.68;;;21.00;60.70;;;;;;4995886;28;20054;-73
2022/03/03 07:52:25;;;;;;;9.63;6.90;;;21.10;60.40;;;;;;4995785;28;20035;-73
2022/03/03 07:54:51;;;;;;;13.30;8.00;;;21.20;60.60;;;;;;4997097;28;20050;-73
2022/03/03 07:57:19;;;;;;;8.60;6.80;;;21.20;60.00;;;;;;4997655;28;20050;-72
2022/03/03 08:00:01;;;;;;;11.68;8.15;;;21.20;60.00;;;;;;4995702;28;20047;-70
2022/03/03 08:02:29;;;;;;;10.77;5.85;;;21.20;49.40;;;;;;4996213;28;20042;-71
2022/03/03 08:04:55;;;;;;;12.38;8.18;;;21.40;44.70;;;;;;4984415;28;20047;-69
2022/03/03 08:07:22;;;;;;;9.88;8.40;;;21.40;41.90;;;;;;4995728;28;20070;-71
2022/03/03 08:09:48;;;;;;;16.35;7.38;;;21.60;39.90;;;;;;4996748;28;20050;-70
2022/03/03 08:12:16;;;;;;;7.32;4.68;;;21.60;40.50;;;;;;4995869;28;20038;-70
2022/03/03 08:14:42;;;;;;;9.43;7.22;;;21.70;40.30;;;;;;4995118;28;20074;-70
2022/03/03 08:17:14;;;;;;;13.00;7.78;;;21.70;45.50;;;;;;4995391;28;20046;-71
2022/03/03 08:19:44;;;;;;;10.23;8.07;;;21.80;56.70;;;;;;4995835;28;20046;-73
2022/03/03 08:22:13;;;;;;;10.55;6.70;;;21.90;58.80;;;;;;4995460;28;20050;-74
2022/03/03 08:24:43;;;;;;;12.93;8.52;;;22.00;56.00;;;;;;4996155;28;20152;-73
2022/03/03 08:27:11;;;;;;;11.55;7.00;;;22.00;56.70;;;;;;4990638;28;20419;-70
2022/03/03 08:29:38;;;;;;;12.73;7.20;;;21.80;56.70;;;;;;4997034;28;20519;-71
2022/03/03 08:32:10;;;;;;;9.93;7.07;;;21.70;56.80;;;;;;4978677;28;20049;-72
2022/03/03 08:35:01;;;;;;;10.27;7.30;;;21.60;57.60;;;;;;4995116;28;20035;-71
2022/03/03 08:37:33;;;;;;;10.05;6.57;;;21.60;57.90;;;;;;4993930;28;20065;-71
2022/03/03 08:40:01;;;;;;;9.73;6.25;;;21.50;58.00;;;;;;4994663;28;20070;-72
2022/03/03 08:42:34;;;;;;;9.43;6.35;;;21.50;58.00;;;;;;5009855;28;20411;-71
2022/03/03 08:45:03;;;;;;;10.32;6.43;;;21.40;57.60;;;;;;4999616;28;20046;-71
2022/03/03 08:47:30;;;;;;;10.25;7.38;;;21.40;57.50;;;;;;4997220;28;20038;-70
2022/03/03 08:49:59;;;;;;;11.25;7.47;;;21.40;57.50;;;;;;4998223;28;20058;-70
2022/03/03 08:52:27;;;;;;;10.10;6.88;;;21.40;57.60;;;;;;4997453;28;20070;-70
2022/03/03 08:54:53;;;;;;;9.70;8.10;;;21.40;57.50;;;;;;4989600;28;20034;-70
2022/03/03 08:57:20;;;;;;;11.50;7.57;;;21.20;57.30;;;;;;5000941;28;20126;-70
2022/03/03 08:59:46;;;;;;;12.55;8.75;;;21.20;58.00;;;;;;4998261;28;20038;-70
2022/03/03 09:02:16;;;;;;;9.73;7.75;;;21.00;57.80;;;;;;4998588;28;20053;-69
2022/03/03 09:04:45;;;;;;;9.57;7.03;;;20.90;58.10;;;;;;4997882;28;20098;-69
2022/03/03 09:07:11;;;;;;;9.25;6.63;;;20.90;57.70;;;;;;4997702;28;20043;-71
2022/03/03 09:09:37;;;;;;;10.30;7.22;;;20.90;57.80;;;;;;5008764;28;20051;-70
2022/03/03 09:12:05;;;;;;;12.27;7.38;;;21.10;58.20;;;;;;5013717;28;20098;-70
2022/03/03 09:14:31;;;;;;;9.57;6.75;;;21.20;57.70;;;;;;5012387;28;20041;-70
2022/03/03 09:16:57;;;;;;;17.02;8.48;;;21.10;57.60;;;;;;5011451;28;20049;-68
2022/03/03 09:19:23;;;;;;;12.60;7.85;;;21.30;57.70;;;;;;5016244;28;20034;-70
2022/03/03 09:21:49;;;;;;;10.00;7.47;;;21.20;57.70;;;;;;5018434;28;20065;-69
2022/03/03 09:24:15;;;;;;;11.93;8.77;;;21.10;57.80;;;;;;5017308;28;20073;-70
2022/03/03 09:26:42;;;;;;;9.75;7.82;;;21.10;57.80;;;;;;5002096;28;20057;-70
2022/03/03 09:29:08;;;;;;;10.23;6.97;;;21.10;57.90;;;;;;4998831;28;20062;-70
2022/03/03 09:31:35;;;;;;;13.07;8.82;;;21.10;58.00;;;;;;4998728;28;20070;-70
2022/03/03 09:34:01;;;;;;;9.80;8.15;;;21.20;57.90;;;;;;4998624;28;20066;-70
2022/03/03 09:36:27;;;;;;;16.65;9.07;;;21.20;57.80;;;;;;4998430;28;20043;-69
2022/03/03 09:38:53;;;;;;;9.20;7.45;;;21.20;57.60;;;;;;5013646;28;20109;-69
2022/03/03 09:41:20;;;;;;;9.50;7.35;;;21.30;57.80;;;;;;5013555;28;20047;-70
2022/03/03 09:43:46;;;;;;;11.77;6.97;;;21.30;57.90;;;;;;5018060;28;20038;-70
2022/03/03 09:46:12;;;;;;;12.88;7.97;;;21.20;57.70;;;;;;5017841;28;20038;-70
2022/03/03 09:48:38;;;;;;;10.77;8.70;;;21.20;57.50;;;;;;5017490;28;20061;-70
2022/03/03 09:51:05;;;;;;;8.45;7.35;;;21.20;57.40;;;;;;5017570;28;20102;-70
2022/03/03 09:53:32;;;;;;;9.27;8.27;;;21.20;57.60;;;;;;5017992;28;20039;-70
2022/03/03 09:55:59;;;;;;;13.23;7.35;;;21.40;57.60;;;;;;5013390;28;20038;-70
2022/03/03 09:58:25;;;;;;;10.70;6.95;;;21.20;56.70;;;;;;5017670;28;20053;-70
2022/03/03 10:00:51;;;;;;;11.60;8.60;;;21.20;57.30;;;;;;4987348;28;20062;-70
2022/03/03 10:03:18;;;;;;;13.15;7.07;;;21.40;57.80;;;;;;4997420;28;20042;-69
2022/03/03 10:05:47;;;;;;;9.57;6.93;;;21.30;57.50;;;;;;4999102;28;20058;-71
2022/03/03 10:08:20;;;;;;;12.30;7.40;;;21.40;57.30;;;;;;4995644;28;20054;-70
2022/03/03 10:10:49;;;;;;;10.65;7.97;;;21.40;57.00;;;;;;4997459;28;20042;-71
2022/03/03 10:13:19;;;;;;;15.10;8.02;;;21.30;55.90;;;;;;4994197;28;20049;-77
2022/03/03 10:15:56;;;;;;;8.90;5.93;;;21.40;55.90;;;;;;4997960;28;20122;-73
2022/03/03 10:18:24;;;;;;;6.65;3.80;;;21.50;56.70;;;;;;5003862;28;20065;-71
2022/03/03 10:20:57;;;;;;;7.20;5.03;;;21.60;53.90;;;;;;5004679;28;20043;-72
2022/03/03 10:23:28;;;;;;;8.55;5.10;;;21.80;51.40;;;;;;5004948;28;20042;-69
2022/03/03 10:25:57;;;;;;;9.65;4.20;;;21.80;49.60;;;;;;5000574;28;20062;-71
2022/03/03 10:28:25;;;;;;;4.95;2.83;;;21.80;47.70;;;;;;5000561;28;20114;-70
2022/03/03 10:31:00;;;;;;;5.05;3.67;;;21.80;46.40;;;;;;5001131;28;20049;-71
2022/03/03 10:33:37;;;;;;;8.60;5.22;;;21.90;46.20;;;;;;4997079;28;20063;-70
2022/03/03 10:36:14;;;;;;;10.55;8.70;;;21.90;46.90;;;;;;4997266;28;20085;-70
2022/03/03 10:39:00;;;;;;;7.70;6.15;;;21.80;40.80;;;;;;4998627;28;20043;-70
2022/03/03 10:41:41;;;;;;;13.48;8.93;;;22.20;48.60;;;;;;5000557;28;20066;-69
2022/03/03 10:44:10;;;;;;;7.20;4.00;;;22.30;39.30;;;;;;4996801;28;20081;-69
2022/03/03 10:46:39;;;;;;;9.02;5.78;;;22.30;38.70;;;;;;4997601;28;20046;-71
2022/03/03 10:49:23;;;;;;;9.88;7.80;;;22.50;41.10;;;;;;4998684;28;20784;-73
2022/03/03 10:51:52;;;;;;;10.95;6.03;;;22.40;39.10;;;;;;4996522;28;20038;-71
2022/03/03 10:54:19;;;;;;;11.25;6.38;;;22.60;37.00;;;;;;4985098;28;20035;-70
2022/03/03 10:56:49;;;;;;;9.93;6.45;;;22.60;36.90;;;;;;5016525;28;20704;-69
2022/03/03 10:59:23;;;;;;;11.85;6.95;;;22.40;35.10;;;;;;5001290;28;20039;-71
2022/03/03 11:01:53;;;;;;;7.95;5.82;;;22.50;34.40;;;;;;4995344;28;20053;-71
2022/03/03 11:04:23;;;;;;;8.95;5.50;;;22.60;34.00;;;;;;5000552;28;20105;-70
2022/03/03 11:06:57;;;;;;;7.32;4.88;;;22.60;38.20;;;;;;5000100;28;20115;-71
2022/03/03 11:09:23;;;;;;;6.72;4.18;;;22.60;40.90;;;;;;4999391;28;20035;-70
2022/03/03 11:11:49;;;;;;;8.02;4.97;;;22.80;41.00;;;;;;4996290;28;20094;-70
2022/03/03 11:14:16;;;;;;;9.43;7.03;;;22.90;39.90;;;;;;4996282;28;20035;-72
2022/03/03 11:16:42;;;;;;;9.30;7.28;;;23.00;37.80;;;;;;5003219;28;20094;-71
2022/03/03 11:19:10;;;;;;;13.30;7.88;;;22.90;44.20;;;;;;4996210;28;20049;-72
2022/03/03 11:21:37;;;;;;;10.55;6.95;;;22.90;45.60;;;;;;4996503;28;20051;-72
2022/03/03 11:24:04;;;;;;;7.93;6.82;;;22.90;44.90;;;;;;4996829;28;20110;-73
2022/03/03 11:26:33;;;;;;;10.93;7.60;;;22.70;45.80;;;;;;5012189;28;20025;-73
2022/03/03 11:29:15;;;;;;;11.85;8.45;;;22.80;46.60;;;;;;5014661;28;20038;-74
2022/03/03 11:32:04;;;;;;;10.45;7.50;;;22.80;47.40;;;;;;5016347;28;20037;-73
2022/03/03 11:34:32;;;;;;;10.48;8.25;;;22.50;46.30;;;;;;4998649;28;20046;-73
2022/03/03 11:37:07;;;;;;;9.63;7.57;;;22.50;48.20;;;;;;5004616;28;20039;-72
2022/03/03 11:40:00;;;;;;;9.73;7.45;;;22.50;46.50;;;;;;4997526;28;20050;-72
2022/03/03 11:42:34;;;;;;;10.93;8.00;;;22.30;47.50;;;;;;4987637;28;20035;-73
2022/03/03 11:45:10;;;;;;;7.57;5.85;;;22.10;47.80;;;;;;4996497;28;20039;-73
2022/03/03 11:47:41;;;;;;;8.98;6.82;;;22.00;49.20;;;;;;5001894;28;20046;-73
2022/03/03 11:50:16;;;;;;;10.48;6.70;;;22.00;49.00;;;;;;4996436;28;20098;-73
2022/03/03 11:52:57;;;;;;;9.02;6.47;;;21.90;49.80;;;;;;5001688;28;20038;-72
2022/03/03 11:55:40;;;;;;;8.77;5.90;;;21.90;51.00;;;;;;4991401;28;20050;-73
2022/03/03 11:58:16;;;;;;;9.18;6.68;;;22.10;52.00;;;;;;4994418;28;20095;-72
2022/03/03 12:01:03;;;;;;;10.88;6.97;;;22.10;53.80;;;;;;4995815;28;20049;-72
2022/03/03 12:03:30;;;;;;;10.02;6.57;;;22.10;53.60;;;;;;4996182;28;20068;-73
2022/03/03 12:06:11;;;;;;;11.95;7.72;;;21.90;50.70;;;;;;4996383;28;20039;-72
2022/03/03 12:08:42;;;;;;;11.30;7.47;;;21.70;49.50;;;;;;4995397;28;20050;-71
2022/03/03 12:11:15;;;;;;;11.13;7.25;;;21.60;52.40;;;;;;4997273;28;20085;-70
2022/03/03 12:13:47;;;;;;;10.25;7.95;;;21.60;53.30;;;;;;4997974;28;20034;-70
2022/03/03 12:16:19;;;;;;;10.43;7.43;;;21.50;51.60;;;;;;4994992;28;20039;-70
2022/03/03 12:18:56;;;;;;;11.57;8.27;;;21.50;50.50;;;;;;5013891;28;20046;-70
2022/03/03 12:21:26;;;;;;;9.95;7.50;;;21.40;49.30;;;;;;4999084;28;20292;-70
2022/03/03 12:24:14;;;;;;;11.25;7.35;;;21.30;50.40;;;;;;5007006;28;20034;-70
2022/03/03 12:26:55;;;;;;;9.82;7.30;;;21.20;52.40;;;;;;4982120;28;20035;-70
2022/03/03 12:29:39;;;;;;;10.35;6.68;;;21.30;51.60;;;;;;5007235;28;20073;-70
2022/03/03 12:32:24;;;;;;;13.35;7.32;;;21.00;53.70;;;;;;5017306;28;20042;-70
2022/03/03 12:34:51;;;;;;;10.82;7.60;;;21.00;52.80;;;;;;5017277;28;20038;-70
2022/03/03 12:37:18;;;;;;;9.45;7.25;;;21.00;54.10;;;;;;4999085;28;20062;-70
2022/03/03 12:39:52;;;;;;;8.63;6.47;;;21.00;53.70;;;;;;5001095;28;20049;-70
2022/03/03 12:42:19;;;;;;;10.07;7.03;;;21.00;53.10;;;;;;5000970;28;20102;-70
2022/03/03 12:44:56;;;;;;;9.27;6.03;;;21.00;53.40;;;;;;4999287;28;20107;-70
2022/03/03 12:47:44;;;;;;;10.48;7.53;;;20.90;54.10;;;;;;4999203;28;20051;-70